Startbyn, Sweden

5:30 PM CEST on August 01, 2015 (GMT +0200)
Kallax Air Base | | Change Station
CLOSE
Current Station
Airport
Location: Lulea-Kallax,
Elevation: 112 ft
Nearby Weather Stations

Elev 112 ft 65.54 °N, 22.12 °E | Updated 10 minutes ago

Clear
Clear
57 °F
Feels Like 57 °F
N
10
Wind Variable Wind from NW

Today
High -- | Low -- °F
--% Chance of Precip.
Yesterday
High -- | Low -- °F
Precip. -- in
3:08 AM 9:57 PM
Full, 98% visible
Pressure 29.74 in
Visibility -9999.0 miles
Clouds
Dew Point 54 °F
Humidity 88%
Rainfall 0.00 in
Snow Depth Not available.
UV Not available.
Pollen Not available.
Air Quality Not available.
Flu Activity Not available.
METAR ESPA 011520Z 31009KT CAVOK 14/12 Q1007

More Conditions Fewer Conditions

Pressure 29.74 in
Visibility -9999.0 miles
Clouds
Dew Point 54 °F
Humidity 88%
Rainfall 0.00 in
Snow Depth Not available.
UV Not available.
Pollen Not available.
Air Quality Not available.
Flu Activity Not available.
METAR ESPA 011520Z 31009KT CAVOK 14/12 Q1007

More Conditions Fewer Conditions

10-Day Weather Forecast

×

Almanac

Astronomy

Aug. 01, 2015 Rise Set
Actual Time
Civil Twilight
Nautical Twilight
Astronomical Twilight
Moon
Length of Visible Light
Length of Day
Tomorrow will be .
, % of the Moon is Illuminated

Today's Extremes

Country Highs Country Lows

Community

WunderPhotos

Upload Photos

1,842,965 photos uploaded!

WunderBlogs® & News

Nearby

Air Quality

  Air Quality AQ Index Pollutant
Not available.

Snow Depth

Station Depth Elevation

Earthquake Activity

City Distance Mag. Time & Date
Minimum magnitude displayed is 2.5.

Coastal Water Temperatures

Place Temperature

Stations

Nearby Weather Stations

Station Location Temp. Windchill Dew Point Humidity Wind Precip. Elev Updated Type